createdAt,value
2019-04-27T00:02:44.013Z,100.00
2019-04-27T00:05:35.459Z,100.00
2019-04-27T00:08:16.129Z,100.00
2019-04-27T00:11:06.917Z,100.00
2019-04-27T00:13:34.817Z,100.00
2019-04-27T00:16:17.778Z,100.00
2019-04-27T00:19:05.874Z,100.00
2019-04-27T00:21:43.308Z,100.00
2019-04-27T00:24:13.504Z,100.00
2019-04-27T00:26:43.363Z,100.00
2019-04-27T00:29:13.859Z,100.00
2019-04-27T00:31:43.486Z,100.00
2019-04-27T00:34:13.726Z,100.00
2019-04-27T00:36:53.478Z,100.00
2019-04-27T00:39:32.952Z,100.00
2019-04-27T00:42:03.297Z,100.00
2019-04-27T00:44:33.878Z,100.00
2019-04-27T00:47:04.748Z,100.00
2019-04-27T00:49:33.867Z,100.00
2019-04-27T00:52:03.691Z,100.00
2019-04-27T00:54:33.980Z,100.00
2019-04-27T00:57:17.936Z,100.00
2019-04-27T01:00:08.850Z,100.00
2019-04-27T01:02:54.688Z,100.00
2019-04-27T01:05:25.652Z,100.00
2019-04-27T01:07:54.746Z,100.00
2019-04-27T01:10:23.940Z,100.00
2019-04-27T01:12:53.218Z,100.00
2019-04-27T01:15:23.786Z,100.00
2019-04-27T01:17:53.643Z,100.00
2019-04-27T01:20:22.966Z,100.00
2019-04-27T01:22:52.099Z,100.00
2019-04-27T01:25:22.867Z,100.00
2019-04-27T01:28:18.329Z,100.00
2019-04-27T01:30:58.901Z,100.00
2019-04-27T01:33:30.308Z,100.00
2019-04-27T01:35:59.517Z,100.00
2019-04-27T01:38:29.081Z,100.00
2019-04-27T01:41:00.542Z,100.00
2019-04-27T01:43:30.269Z,100.00
2019-04-27T01:46:01.008Z,100.00
2019-04-27T01:48:30.582Z,100.00
2019-04-27T01:50:59.985Z,100.00
2019-04-27T01:53:30.471Z,100.00
2019-04-27T01:55:59.602Z,100.00
2019-04-27T01:58:29.300Z,100.00
2019-04-27T02:01:26.485Z,100.00
2019-04-27T02:04:09.628Z,100.00
2019-04-27T02:06:38.830Z,100.00
2019-04-27T02:09:10.015Z,100.00
2019-04-27T02:11:39.137Z,100.00
2019-04-27T02:14:09.479Z,100.00
2019-04-27T02:16:39.119Z,100.00
2019-04-27T02:19:11.039Z,100.00
2019-04-27T02:21:39.493Z,100.00
2019-04-27T02:24:09.717Z,100.00
2019-04-27T02:26:39.935Z,100.00
2019-04-27T02:29:26.424Z,100.00
2019-04-27T02:32:10.748Z,100.00
2019-04-27T02:34:46.066Z,100.00
2019-04-27T02:37:15.508Z,100.00
2019-04-27T02:39:44.613Z,100.00
2019-04-27T02:42:13.960Z,100.00
2019-04-27T02:44:44.764Z,100.00
2019-04-27T02:47:13.909Z,100.00
2019-04-27T02:49:43.293Z,100.00
2019-04-27T02:52:22.367Z,100.00
2019-04-27T02:54:51.520Z,100.00
2019-04-27T02:57:20.806Z,100.00
2019-04-27T02:59:50.556Z,100.00
2019-04-27T03:02:51.250Z,100.00
2019-04-27T03:05:29.449Z,100.00
2019-04-27T03:07:59.783Z,100.00
2019-04-27T03:10:31.272Z,100.00
2019-04-27T03:13:20.040Z,100.00
2019-04-27T03:16:00.929Z,100.00
2019-04-27T03:19:09.851Z,100.00
2019-04-27T03:21:29.336Z,100.00
2019-04-27T03:24:00.072Z,100.00
2019-04-27T03:26:50.092Z,100.00
2019-04-27T03:29:22.518Z,100.00
2019-04-27T03:31:53.946Z,100.00
2019-04-27T03:34:22.210Z,100.00
2019-04-27T03:36:53.770Z,100.00
2019-04-27T03:39:22.950Z,100.00
2019-04-27T03:41:52.928Z,100.00
2019-04-27T03:44:22.332Z,100.00
2019-04-27T03:46:51.465Z,100.00
2019-04-27T03:49:34.593Z,100.00
2019-04-27T03:52:00.260Z,100.00
2019-04-27T03:54:51.397Z,100.00
2019-04-27T03:57:51.900Z,100.00
2019-04-27T04:00:23.491Z,100.00
2019-04-27T04:02:52.615Z,100.00
2019-04-27T04:05:21.732Z,100.00
2019-04-27T04:07:51.000Z,100.00
2019-04-27T04:10:20.245Z,100.00
2019-04-27T04:13:03.350Z,100.00
2019-04-27T04:15:45.886Z,100.00
2019-04-27T04:18:15.026Z,100.00
2019-04-27T04:20:44.256Z,100.00
2019-04-27T04:23:13.604Z,100.00
2019-04-27T04:25:42.699Z,100.00
2019-04-27T04:28:11.823Z,100.00
2019-04-27T04:30:41.201Z,100.00
2019-04-27T04:33:10.607Z,100.00
2019-04-27T04:35:40.102Z,100.00
2019-04-27T04:38:10.465Z,100.00
2019-04-27T04:40:45.357Z,100.00
2019-04-27T04:43:24.394Z,100.00
2019-04-27T04:46:13.305Z,100.00
2019-04-27T04:48:42.604Z,100.00
2019-04-27T04:51:11.748Z,100.00
2019-04-27T04:53:40.880Z,100.00
2019-04-27T04:56:10.715Z,100.00
2019-04-27T04:58:41.446Z,100.00
2019-04-27T05:01:10.794Z,100.00
2019-04-27T05:03:39.893Z,100.00
2019-04-27T05:06:09.068Z,100.00
2019-04-27T05:08:39.388Z,100.00
2019-04-27T05:11:09.664Z,100.00
2019-04-27T05:13:39.409Z,100.00
2019-04-27T05:16:09.002Z,100.00
2019-04-27T05:18:39.372Z,100.00
2019-04-27T05:21:18.602Z,100.00
2019-04-27T05:23:48.717Z,100.00
2019-04-27T05:26:19.024Z,100.00
2019-04-27T05:28:49.161Z,100.00
2019-04-27T05:31:19.482Z,100.00
2019-04-27T05:33:49.106Z,100.00
2019-04-27T05:36:19.335Z,100.00
2019-04-27T05:38:49.838Z,100.00
2019-04-27T05:41:19.056Z,100.00
2019-04-27T05:44:07.629Z,100.00
2019-04-27T05:47:10.001Z,98.28
2019-04-27T05:49:44.755Z,97.02
2019-04-27T05:52:29.963Z,95.45
2019-04-27T05:54:59.345Z,94.15
2019-04-27T05:57:31.487Z,94.40
2019-04-27T06:00:02.332Z,94.72
2019-04-27T06:02:30.761Z,95.17
2019-04-27T06:05:00.293Z,94.87
2019-04-27T06:07:29.924Z,95.07
2019-04-27T06:09:59.893Z,95.98
2019-04-27T06:12:29.801Z,95.74
2019-04-27T06:14:59.888Z,95.27
2019-04-27T06:17:29.969Z,95.34
2019-04-27T06:19:59.753Z,92.37
2019-04-27T06:22:29.511Z,89.62
2019-04-27T06:25:00.168Z,88.83
2019-04-27T06:27:30.670Z,86.56
2019-04-27T06:30:00.055Z,84.49
2019-04-27T06:32:29.716Z,80.75
2019-04-27T06:34:59.342Z,78.12
2019-04-27T06:37:29.496Z,77.13
2019-04-27T06:39:59.691Z,75.27
2019-04-27T06:42:29.810Z,73.61
2019-04-27T06:44:59.950Z,72.23
2019-04-27T06:47:29.951Z,73.38
2019-04-27T06:49:59.095Z,72.61
2019-04-27T06:52:29.453Z,71.41
2019-04-27T06:55:00.412Z,69.88
2019-04-27T06:57:29.663Z,69.21
2019-04-27T06:59:59.228Z,70.21
2019-04-27T07:02:29.218Z,71.46
2019-04-27T07:04:59.236Z,70.98
2019-04-27T07:07:29.501Z,70.05
2019-04-27T07:09:59.233Z,70.94
2019-04-27T07:12:28.952Z,68.65
2019-04-27T07:14:59.484Z,71.63
2019-04-27T07:17:29.072Z,71.28
2019-04-27T07:19:59.480Z,71.90
2019-04-27T07:22:29.843Z,71.90
2019-04-27T07:25:00.246Z,72.51
2019-04-27T07:27:29.451Z,74.86
2019-04-27T07:29:59.526Z,74.81
2019-04-27T07:32:29.699Z,72.67
2019-04-27T07:34:58.876Z,74.82
2019-04-27T07:37:29.438Z,74.94
2019-04-27T07:39:59.259Z,75.51
2019-04-27T07:42:31.512Z,75.28
2019-04-27T07:45:11.359Z,74.66
2019-04-27T07:47:43.001Z,75.97
2019-04-27T07:50:12.408Z,76.34
2019-04-27T07:52:41.538Z,75.47
2019-04-27T07:55:10.814Z,76.41
2019-04-27T07:57:40.089Z,75.68
2019-04-27T08:00:09.589Z,72.96
2019-04-27T08:02:39.101Z,75.31
2019-04-27T08:05:09.349Z,73.22
2019-04-27T08:07:39.274Z,74.89
2019-04-27T08:10:09.691Z,75.36
2019-04-27T08:12:39.149Z,75.68
2019-04-27T08:15:08.922Z,74.78
2019-04-27T08:17:42.385Z,75.26
2019-04-27T08:20:09.975Z,75.00
2019-04-27T08:22:39.418Z,74.48
2019-04-27T08:25:09.604Z,76.43
2019-04-27T08:28:00.800Z,79.08
2019-04-27T08:30:48.994Z,80.80
2019-04-27T08:33:19.059Z,80.73
2019-04-27T08:35:49.091Z,80.09
2019-04-27T08:38:20.388Z,80.32
2019-04-27T08:40:49.532Z,79.85
2019-04-27T08:43:19.189Z,79.33
2019-04-27T08:45:48.908Z,79.82
2019-04-27T08:48:33.481Z,79.60
2019-04-27T08:50:49.098Z,79.80
2019-04-27T08:53:18.688Z,81.13
2019-04-27T08:55:49.649Z,81.63
2019-04-27T08:58:21.093Z,83.02
2019-04-27T09:00:49.778Z,83.10
2019-04-27T09:03:19.412Z,83.15
2019-04-27T09:05:49.113Z,82.94
2019-04-27T09:08:23.235Z,83.75
2019-04-27T09:11:10.354Z,83.82
2019-04-27T09:14:11.171Z,83.47
2019-04-27T09:16:59.653Z,80.94
2019-04-27T09:19:45.847Z,83.28
2019-04-27T09:22:16.578Z,82.21
2019-04-27T09:24:45.975Z,83.46
2019-04-27T09:27:17.323Z,86.21
2019-04-27T09:29:46.021Z,86.10
2019-04-27T09:32:15.218Z,85.94
2019-04-27T09:34:44.385Z,85.50
2019-04-27T09:37:13.558Z,86.64
2019-04-27T09:39:43.089Z,88.41
2019-04-27T09:42:12.380Z,87.71
2019-04-27T09:44:41.610Z,87.54
2019-04-27T09:47:10.836Z,86.49
2019-04-27T09:49:39.958Z,87.81
2019-04-27T09:52:09.140Z,87.02
2019-04-27T09:54:38.312Z,83.94
2019-04-27T09:57:07.499Z,84.22
2019-04-27T09:59:39.390Z,83.15
2019-04-27T10:02:08.722Z,82.62
2019-04-27T10:04:38.084Z,82.49
2019-04-27T10:07:07.464Z,82.94
2019-04-27T10:09:36.968Z,81.40
2019-04-27T10:12:07.403Z,81.37
2019-04-27T10:14:37.055Z,80.81
2019-04-27T10:17:06.203Z,82.79
2019-04-27T10:19:36.534Z,82.32
2019-04-27T10:22:05.935Z,83.76
2019-04-27T10:24:35.838Z,81.74
2019-04-27T10:27:07.800Z,80.87
2019-04-27T10:29:36.662Z,81.28
2019-04-27T10:32:06.408Z,82.67
2019-04-27T10:34:35.656Z,82.00
2019-04-27T10:37:06.054Z,79.55
2019-04-27T10:39:36.123Z,77.24
2019-04-27T10:42:06.737Z,78.16
2019-04-27T10:44:36.093Z,79.11
2019-04-27T10:47:05.919Z,79.02
2019-04-27T10:49:35.191Z,77.25
2019-04-27T10:52:05.881Z,76.68
2019-04-27T10:54:35.409Z,78.36
2019-04-27T10:57:06.107Z,77.57
2019-04-27T10:59:36.095Z,79.74
2019-04-27T11:02:05.640Z,79.09
2019-04-27T11:04:50.275Z,78.64
2019-04-27T11:07:21.076Z,80.30
2019-04-27T11:09:50.777Z,78.07
2019-04-27T11:12:20.241Z,78.29
2019-04-27T11:14:49.432Z,77.10
2019-04-27T11:17:18.592Z,77.32
2019-04-27T11:19:47.793Z,76.73
2019-04-27T11:22:17.006Z,73.93
2019-04-27T11:24:47.937Z,76.81
2019-04-27T11:27:17.605Z,74.84
2019-04-27T11:29:46.894Z,76.66
2019-04-27T11:32:16.148Z,78.82
2019-04-27T11:35:16.447Z,77.02
2019-04-27T11:37:45.745Z,76.60
2019-04-27T11:40:15.441Z,76.97
2019-04-27T11:42:44.687Z,75.70
2019-04-27T11:45:14.463Z,75.07
2019-04-27T11:47:43.666Z,75.00
2019-04-27T11:50:16.587Z,75.81
2019-04-27T11:52:45.876Z,75.81
2019-04-27T11:55:16.078Z,76.58
2019-04-27T11:57:47.025Z,75.27
2019-04-27T12:00:20.815Z,73.01
2019-04-27T12:02:50.046Z,75.17
2019-04-27T12:05:19.644Z,77.94
2019-04-27T12:07:48.818Z,80.43
2019-04-27T12:10:18.548Z,81.34
2019-04-27T12:12:47.754Z,82.32
2019-04-27T12:15:17.903Z,83.85
2019-04-27T12:17:47.168Z,85.11
2019-04-27T12:20:17.937Z,82.87
2019-04-27T12:22:47.250Z,81.43
2019-04-27T12:25:16.895Z,82.39
2019-04-27T12:28:04.433Z,78.84
2019-04-27T12:30:41.524Z,75.85
2019-04-27T12:33:10.679Z,74.84
2019-04-27T12:35:39.882Z,75.22
2019-04-27T12:38:09.323Z,73.44
2019-04-27T12:40:38.742Z,73.53
2019-04-27T12:43:07.909Z,71.99
2019-04-27T12:45:40.014Z,71.53
2019-04-27T12:48:08.165Z,70.81
2019-04-27T12:50:37.458Z,67.69
2019-04-27T12:53:09.549Z,64.61
2019-04-27T12:55:57.661Z,63.38
2019-04-27T12:58:42.449Z,60.19
2019-04-27T13:01:13.400Z,62.73
2019-04-27T13:03:42.580Z,62.70
2019-04-27T13:06:11.711Z,61.18
2019-04-27T13:08:40.893Z,59.77
2019-04-27T13:11:10.051Z,61.56
2019-04-27T13:13:39.270Z,61.19
2019-04-27T13:16:08.451Z,62.56
2019-04-27T13:18:37.633Z,64.16
2019-04-27T13:21:06.810Z,65.17
2019-04-27T13:23:37.136Z,66.16
2019-04-27T13:26:06.829Z,65.37
2019-04-27T13:28:36.022Z,65.00
2019-04-27T13:31:06.747Z,64.80
2019-04-27T13:33:36.535Z,65.47
2019-04-27T13:36:07.594Z,64.75
2019-04-27T13:38:36.819Z,64.75
2019-04-27T13:41:07.499Z,66.55
2019-04-27T13:43:37.942Z,67.77
2019-04-27T13:46:38.843Z,70.31
2019-04-27T13:49:29.528Z,71.48
2019-04-27T13:52:02.610Z,74.71
2019-04-27T13:54:31.830Z,75.61
2019-04-27T13:57:00.975Z,76.95
2019-04-27T13:59:31.800Z,79.03
2019-04-27T14:02:01.024Z,81.88
2019-04-27T14:04:30.262Z,83.02
2019-04-27T14:06:59.530Z,86.50
2019-04-27T14:09:30.387Z,87.48
2019-04-27T14:12:18.791Z,93.57
2019-04-27T14:14:50.340Z,98.36
2019-04-27T14:17:19.625Z,100.00
2019-04-27T14:19:48.831Z,97.43
2019-04-27T14:22:18.294Z,100.00
2019-04-27T14:24:48.734Z,100.00
2019-04-27T14:27:19.305Z,100.00
2019-04-27T14:30:30.005Z,96.11
2019-04-27T14:32:59.794Z,95.00
2019-04-27T14:35:29.066Z,92.63
2019-04-27T14:37:58.257Z,93.71
2019-04-27T14:40:28.794Z,96.54
2019-04-27T14:42:59.011Z,95.63
2019-04-27T14:45:28.675Z,95.46
2019-04-27T14:47:58.268Z,93.51
2019-04-27T14:50:27.559Z,92.38
2019-04-27T14:52:56.749Z,92.29
2019-04-27T14:55:25.939Z,93.78
2019-04-27T14:57:55.110Z,92.32
2019-04-27T15:00:24.385Z,93.39
2019-04-27T15:02:53.555Z,92.81
2019-04-27T15:05:22.721Z,91.49
2019-04-27T15:07:52.006Z,91.41
2019-04-27T15:10:21.209Z,89.88
2019-04-27T15:12:50.384Z,87.39
2019-04-27T15:15:21.383Z,86.87
2019-04-27T15:17:50.909Z,86.52
2019-04-27T15:20:27.216Z,85.95
2019-04-27T15:22:58.498Z,88.20
2019-04-27T15:25:28.261Z,87.22
2019-04-27T15:28:01.385Z,83.78
2019-04-27T15:30:49.574Z,83.81
2019-04-27T15:33:38.857Z,85.88
2019-04-27T15:36:14.711Z,84.93
2019-04-27T15:38:49.242Z,82.99
2019-04-27T15:41:24.299Z,83.53
2019-04-27T15:43:53.156Z,84.54
2019-04-27T15:46:22.403Z,84.59
2019-04-27T15:48:54.192Z,84.52
2019-04-27T15:51:22.582Z,85.30
2019-04-27T15:53:53.930Z,82.27
2019-04-27T15:56:22.639Z,83.05
2019-04-27T15:58:55.733Z,81.12
2019-04-27T16:01:22.838Z,78.70
2019-04-27T16:03:52.290Z,79.45
2019-04-27T16:06:21.566Z,80.07
2019-04-27T16:08:50.782Z,80.11
2019-04-27T16:11:20.016Z,82.79
2019-04-27T16:13:49.197Z,82.44
2019-04-27T16:16:18.951Z,81.78
2019-04-27T16:18:49.116Z,80.14
2019-04-27T16:21:20.109Z,81.24
2019-04-27T16:23:49.538Z,82.18
2019-04-27T16:26:18.868Z,83.23
2019-04-27T16:28:53.006Z,81.85
2019-04-27T16:31:20.437Z,79.05
2019-04-27T16:33:50.091Z,75.93
2019-04-27T16:36:20.861Z,74.88
2019-04-27T16:39:03.658Z,73.25
2019-04-27T16:41:32.962Z,71.10
2019-04-27T16:44:02.409Z,69.18
2019-04-27T16:46:35.076Z,67.82
2019-04-27T16:49:07.444Z,66.53
2019-04-27T16:51:36.979Z,69.05
2019-04-27T16:54:05.752Z,71.10
2019-04-27T16:56:34.925Z,73.72
2019-04-27T16:59:25.844Z,75.18
2019-04-27T17:01:34.998Z,77.01
2019-04-27T17:04:06.457Z,78.32
2019-04-27T17:06:40.774Z,79.66
2019-04-27T17:09:11.482Z,82.21
2019-04-27T17:11:38.956Z,82.12
2019-04-27T17:14:34.718Z,89.51
2019-04-27T17:17:21.514Z,90.26
2019-04-27T17:19:58.111Z,91.32
2019-04-27T17:22:28.648Z,94.11
2019-04-27T17:24:58.157Z,95.46
2019-04-27T17:27:35.688Z,95.54
2019-04-27T17:30:05.813Z,96.47
2019-04-27T17:32:41.950Z,95.53
2019-04-27T17:35:14.679Z,95.05
2019-04-27T17:37:42.468Z,96.00
2019-04-27T17:40:15.373Z,96.96
2019-04-27T17:42:44.561Z,95.26
2019-04-27T17:45:13.906Z,95.99
2019-04-27T17:47:43.167Z,96.24
2019-04-27T17:50:12.924Z,96.45
2019-04-27T17:52:42.176Z,95.65
2019-04-27T17:55:11.352Z,94.95
2019-04-27T17:57:40.510Z,94.09
2019-04-27T18:00:10.987Z,93.84
2019-04-27T18:02:42.392Z,94.99
2019-04-27T18:05:13.679Z,95.78
2019-04-27T18:07:44.172Z,95.60
2019-04-27T18:10:21.115Z,94.81
2019-04-27T18:12:48.815Z,95.75
2019-04-27T18:15:16.127Z,95.02
2019-04-27T18:17:50.104Z,95.12
2019-04-27T18:20:20.779Z,95.82
2019-04-27T18:22:54.260Z,94.08
2019-04-27T18:25:23.518Z,94.35
2019-04-27T18:28:19.179Z,94.40
2019-04-27T18:31:02.843Z,94.83
2019-04-27T18:33:32.665Z,95.38
2019-04-27T18:36:07.308Z,95.76
2019-04-27T18:38:35.487Z,95.62
2019-04-27T18:41:08.015Z,94.44
2019-04-27T18:43:35.941Z,94.23
2019-04-27T18:46:05.237Z,95.18
2019-04-27T18:48:54.095Z,94.84
2019-04-27T18:51:31.269Z,94.74
2019-04-27T18:54:03.541Z,95.73
2019-04-27T18:56:33.432Z,97.79
2019-04-27T18:59:02.449Z,98.57
2019-04-27T19:01:31.617Z,97.75
2019-04-27T19:04:00.848Z,97.02
2019-04-27T19:06:29.989Z,97.07
2019-04-27T19:08:59.200Z,95.76
2019-04-27T19:11:29.055Z,95.11
2019-04-27T19:13:59.080Z,95.10
2019-04-27T19:16:29.379Z,95.43
2019-04-27T19:18:58.573Z,95.76
2019-04-27T19:21:28.891Z,96.63
2019-04-27T19:23:58.610Z,96.39
2019-04-27T19:26:50.734Z,96.08
2019-04-27T19:29:23.322Z,96.36
2019-04-27T19:32:00.377Z,96.44
2019-04-27T19:34:30.433Z,96.71
2019-04-27T19:36:59.569Z,97.03
2019-04-27T19:39:28.793Z,96.15
2019-04-27T19:42:03.012Z,95.83
2019-04-27T19:44:29.343Z,95.93
2019-04-27T19:47:00.205Z,95.17
2019-04-27T19:49:31.823Z,95.65
2019-04-27T19:52:00.625Z,95.69
2019-04-27T19:54:30.238Z,95.54
2019-04-27T19:56:59.745Z,94.58
2019-04-27T19:59:38.281Z,94.49
2019-04-27T20:02:11.871Z,94.52
2019-04-27T20:04:43.040Z,94.25
2019-04-27T20:07:12.286Z,95.10
2019-04-27T20:09:58.924Z,96.09
2019-04-27T20:12:28.182Z,96.21
2019-04-27T20:14:57.581Z,96.17
2019-04-27T20:17:27.801Z,96.74
2019-04-27T20:19:57.041Z,97.02
2019-04-27T20:22:26.306Z,97.15
2019-04-27T20:24:55.551Z,97.77
2019-04-27T20:27:24.773Z,98.59
2019-04-27T20:29:54.036Z,99.12
2019-04-27T20:32:23.608Z,99.29
2019-04-27T20:34:52.796Z,99.92
2019-04-27T20:37:21.960Z,100.00
2019-04-27T20:39:51.606Z,100.00
2019-04-27T20:42:21.277Z,100.00
2019-04-27T20:44:51.653Z,100.00
2019-04-27T20:47:21.000Z,98.97
2019-04-27T20:49:50.220Z,100.00
2019-04-27T20:52:52.948Z,98.87
2019-04-27T20:55:22.575Z,98.57
2019-04-27T20:57:59.568Z,99.63
2019-04-27T21:00:23.498Z,100.00
2019-04-27T21:03:06.534Z,100.00
2019-04-27T21:05:53.531Z,100.00
2019-04-27T21:08:23.354Z,100.00
2019-04-27T21:10:52.510Z,99.73
2019-04-27T21:13:21.758Z,100.00
2019-04-27T21:15:51.281Z,100.00
2019-04-27T21:18:21.750Z,98.55
2019-04-27T21:20:51.233Z,99.62
2019-04-27T21:23:21.013Z,97.82
2019-04-27T21:25:53.034Z,97.55
2019-04-27T21:28:21.335Z,98.49
2019-04-27T21:30:50.552Z,98.76
2019-04-27T21:33:21.545Z,98.80
2019-04-27T21:35:51.152Z,99.33
2019-04-27T21:38:20.600Z,100.00
2019-04-27T21:40:49.785Z,99.99
2019-04-27T21:43:21.976Z,100.00
2019-04-27T21:45:51.303Z,100.00
2019-04-27T21:48:21.234Z,100.00
2019-04-27T21:50:51.605Z,100.00
2019-04-27T21:53:58.384Z,100.00
2019-04-27T21:56:27.635Z,100.00
2019-04-27T21:58:56.802Z,100.00
2019-04-27T22:01:35.027Z,100.00
2019-04-27T22:04:04.699Z,100.00
2019-04-27T22:06:33.902Z,100.00
2019-04-27T22:09:04.736Z,100.00
2019-04-27T22:11:33.930Z,100.00
2019-04-27T22:14:05.863Z,100.00
2019-04-27T22:16:34.134Z,100.00
2019-04-27T22:19:03.518Z,100.00
2019-04-27T22:21:32.982Z,100.00
2019-04-27T22:24:36.146Z,100.00
2019-04-27T22:27:05.475Z,100.00
2019-04-27T22:29:34.686Z,100.00
2019-04-27T22:32:03.950Z,100.00
2019-04-27T22:34:33.122Z,100.00
2019-04-27T22:37:02.709Z,100.00
2019-04-27T22:39:41.190Z,100.00
2019-04-27T22:42:41.736Z,100.00
2019-04-27T22:45:18.652Z,100.00
2019-04-27T22:47:47.878Z,100.00
2019-04-27T22:50:17.010Z,100.00
2019-04-27T22:52:46.224Z,100.00
2019-04-27T22:55:15.490Z,100.00
2019-04-27T22:57:53.150Z,100.00
2019-04-27T23:00:44.095Z,100.00
2019-04-27T23:03:18.142Z,100.00
2019-04-27T23:05:47.369Z,100.00
2019-04-27T23:08:16.494Z,99.47
2019-04-27T23:10:45.644Z,99.68
2019-04-27T23:13:14.913Z,99.71
2019-04-27T23:15:46.797Z,99.45
2019-04-27T23:18:15.904Z,99.27
2019-04-27T23:20:45.256Z,99.49
2019-04-27T23:23:14.424Z,99.82
2019-04-27T23:25:43.706Z,99.99
2019-04-27T23:28:12.836Z,100.00
2019-04-27T23:31:06.884Z,100.00
2019-04-27T23:33:38.156Z,100.00
2019-04-27T23:36:07.297Z,100.00
2019-04-27T23:38:36.449Z,100.00
2019-04-27T23:41:05.620Z,100.00
2019-04-27T23:43:34.769Z,100.00
2019-04-27T23:46:04.012Z,100.00
2019-04-27T23:48:33.101Z,100.00
2019-04-27T23:51:22.194Z,100.00
2019-04-27T23:53:51.739Z,99.67
2019-04-27T23:56:22.562Z,98.16
2019-04-27T23:58:51.820Z,97.88
